sensor_id;sensor_type;location;lat;lon;timestamp;temperature;humidity
31765;DHT22;18338;53.240;8.798;2023-12-20T00:00:30;5.50;99.90
31765;DHT22;18338;53.240;8.798;2023-12-20T00:03:00;5.60;99.90
31765;DHT22;18338;53.240;8.798;2023-12-20T00:05:27;5.70;99.90
31765;DHT22;18338;53.240;8.798;2023-12-20T00:07:54;5.80;99.90
31765;DHT22;18338;53.240;8.798;2023-12-20T00:10:21;5.90;99.90
31765;DHT22;18338;53.240;8.798;2023-12-20T00:12:48;5.90;99.90
31765;DHT22;18338;53.240;8.798;2023-12-20T00:15:14;5.90;99.90
31765;DHT22;18338;53.240;8.798;2023-12-20T00:17:41;5.90;99.90
31765;DHT22;18338;53.240;8.798;2023-12-20T00:20:09;6.00;99.90
31765;DHT22;18338;53.240;8.798;2023-12-20T00:22:36;5.90;99.90
31765;DHT22;18338;53.240;8.798;2023-12-20T00:25:03;5.90;99.90
31765;DHT22;18338;53.240;8.798;2023-12-20T00:27:29;5.80;99.90
31765;DHT22;18338;53.240;8.798;2023-12-20T00:29:56;5.80;99.90
31765;DHT22;18338;53.240;8.798;2023-12-20T00:32:23;5.80;99.90
31765;DHT22;18338;53.240;8.798;2023-12-20T00:34:50;5.70;99.90
31765;DHT22;18338;53.240;8.798;2023-12-20T00:37:17;5.70;99.90
31765;DHT22;18338;53.240;8.798;2023-12-20T00:39:43;5.70;99.90
31765;DHT22;18338;53.240;8.798;2023-12-20T00:42:10;5.70;99.90
31765;DHT22;18338;53.240;8.798;2023-12-20T00:44:37;5.60;99.90
31765;DHT22;18338;53.240;8.798;2023-12-20T00:47:04;5.60;99.90
31765;DHT22;18338;53.240;8.798;2023-12-20T00:49:31;5.60;99.90
31765;DHT22;18338;53.240;8.798;2023-12-20T00:51:57;5.50;99.90
31765;DHT22;18338;53.240;8.798;2023-12-20T00:54:24;5.50;99.90
31765;DHT22;18338;53.240;8.798;2023-12-20T00:56:52;5.50;99.90
31765;DHT22;18338;53.240;8.798;2023-12-20T00:59:19;5.50;99.90
31765;DHT22;18338;53.240;8.798;2023-12-20T01:01:45;5.40;99.90
31765;DHT22;18338;53.240;8.798;2023-12-20T01:04:12;5.40;99.90
31765;DHT22;18338;53.240;8.798;2023-12-20T01:06:39;5.40;99.90
31765;DHT22;18338;53.240;8.798;2023-12-20T01:09:06;5.50;99.90
31765;DHT22;18338;53.240;8.798;2023-12-20T01:11:33;5.40;99.90
31765;DHT22;18338;53.240;8.798;2023-12-20T01:14:00;5.40;99.90
31765;DHT22;18338;53.240;8.798;2023-12-20T01:16:26;5.40;99.90
31765;DHT22;18338;53.240;8.798;2023-12-20T01:18:53;5.40;99.90
31765;DHT22;18338;53.240;8.798;2023-12-20T01:21:20;5.40;99.90
31765;DHT22;18338;53.240;8.798;2023-12-20T01:23:47;5.40;99.90
31765;DHT22;18338;53.240;8.798;2023-12-20T01:26:15;5.40;99.90
31765;DHT22;18338;53.240;8.798;2023-12-20T01:28:41;5.50;99.90
31765;DHT22;18338;53.240;8.798;2023-12-20T01:31:08;5.40;99.90
31765;DHT22;18338;53.240;8.798;2023-12-20T01:33:35;5.40;99.90
31765;DHT22;18338;53.240;8.798;2023-12-20T01:36:03;5.40;99.90
31765;DHT22;18338;53.240;8.798;2023-12-20T01:38:30;5.30;99.90
31765;DHT22;18338;53.240;8.798;2023-12-20T01:40:56;5.40;99.90
31765;DHT22;18338;53.240;8.798;2023-12-20T01:43:23;5.30;99.90
31765;DHT22;18338;53.240;8.798;2023-12-20T01:45:55;5.20;99.90
31765;DHT22;18338;53.240;8.798;2023-12-20T01:48:23;5.10;99.90
31765;DHT22;18338;53.240;8.798;2023-12-20T01:50:51;5.20;99.90
31765;DHT22;18338;53.240;8.798;2023-12-20T01:53:21;5.30;99.90
31765;DHT22;18338;53.240;8.798;2023-12-20T01:55:50;5.20;99.90
31765;DHT22;18338;53.240;8.798;2023-12-20T01:58:19;5.20;99.90
31765;DHT22;18338;53.240;8.798;2023-12-20T02:00:46;5.20;99.90
31765;DHT22;18338;53.240;8.798;2023-12-20T02:03:13;5.20;99.90
31765;DHT22;18338;53.240;8.798;2023-12-20T02:05:40;5.20;99.90
31765;DHT22;18338;53.240;8.798;2023-12-20T02:08:07;5.10;99.90
31765;DHT22;18338;53.240;8.798;2023-12-20T02:10:34;5.20;99.90
31765;DHT22;18338;53.240;8.798;2023-12-20T02:13:01;5.20;99.90
31765;DHT22;18338;53.240;8.798;2023-12-20T02:15:28;5.20;99.90
31765;DHT22;18338;53.240;8.798;2023-12-20T02:17:55;5.20;99.90
31765;DHT22;18338;53.240;8.798;2023-12-20T02:20:22;5.20;99.90
31765;DHT22;18338;53.240;8.798;2023-12-20T02:22:49;5.20;99.90
31765;DHT22;18338;53.240;8.798;2023-12-20T02:25:15;5.20;99.90
31765;DHT22;18338;53.240;8.798;2023-12-20T02:27:42;5.30;99.90
31765;DHT22;18338;53.240;8.798;2023-12-20T02:30:10;5.30;99.90
31765;DHT22;18338;53.240;8.798;2023-12-20T02:32:37;5.30;99.90
31765;DHT22;18338;53.240;8.798;2023-12-20T02:35:04;5.30;99.90
31765;DHT22;18338;53.240;8.798;2023-12-20T02:37:33;5.40;99.90
31765;DHT22;18338;53.240;8.798;2023-12-20T02:39:59;5.40;99.90
31765;DHT22;18338;53.240;8.798;2023-12-20T02:42:26;5.40;99.90
31765;DHT22;18338;53.240;8.798;2023-12-20T02:44:53;5.50;99.90
31765;DHT22;18338;53.240;8.798;2023-12-20T02:47:20;5.50;99.90
31765;DHT22;18338;53.240;8.798;2023-12-20T02:49:46;5.60;99.90
31765;DHT22;18338;53.240;8.798;2023-12-20T02:52:13;5.60;99.90
31765;DHT22;18338;53.240;8.798;2023-12-20T02:54:40;5.60;99.90
31765;DHT22;18338;53.240;8.798;2023-12-20T02:57:07;5.70;99.90
31765;DHT22;18338;53.240;8.798;2023-12-20T02:59:34;5.70;99.90
31765;DHT22;18338;53.240;8.798;2023-12-20T03:02:01;5.60;99.90
31765;DHT22;18338;53.240;8.798;2023-12-20T03:04:28;5.60;99.90
31765;DHT22;18338;53.240;8.798;2023-12-20T03:06:55;5.60;99.90
31765;DHT22;18338;53.240;8.798;2023-12-20T03:09:23;5.70;99.90
31765;DHT22;18338;53.240;8.798;2023-12-20T03:11:50;5.70;99.90
31765;DHT22;18338;53.240;8.798;2023-12-20T03:14:16;5.70;99.90
31765;DHT22;18338;53.240;8.798;2023-12-20T03:16:48;5.80;99.90
31765;DHT22;18338;53.240;8.798;2023-12-20T03:19:16;5.80;99.90
31765;DHT22;18338;53.240;8.798;2023-12-20T03:21:43;5.80;99.90
31765;DHT22;18338;53.240;8.798;2023-12-20T03:24:10;5.80;99.90
31765;DHT22;18338;53.240;8.798;2023-12-20T03:26:36;5.80;99.90
31765;DHT22;18338;53.240;8.798;2023-12-20T03:29:03;5.80;99.90
31765;DHT22;18338;53.240;8.798;2023-12-20T03:31:30;5.80;99.90
31765;DHT22;18338;53.240;8.798;2023-12-20T03:33:57;5.80;99.90
31765;DHT22;18338;53.240;8.798;2023-12-20T03:36:24;5.80;99.90
31765;DHT22;18338;53.240;8.798;2023-12-20T03:38:50;5.80;99.90
31765;DHT22;18338;53.240;8.798;2023-12-20T03:41:17;5.80;99.90
31765;DHT22;18338;53.240;8.798;2023-12-20T03:43:44;5.80;99.90
31765;DHT22;18338;53.240;8.798;2023-12-20T03:46:11;5.80;99.90
31765;DHT22;18338;53.240;8.798;2023-12-20T03:48:38;5.80;99.90
31765;DHT22;18338;53.240;8.798;2023-12-20T03:51:05;5.80;99.90
31765;DHT22;18338;53.240;8.798;2023-12-20T03:53:31;5.80;99.90
31765;DHT22;18338;53.240;8.798;2023-12-20T03:55:58;5.80;99.90
31765;DHT22;18338;53.240;8.798;2023-12-20T03:58:25;5.80;99.90
31765;DHT22;18338;53.240;8.798;2023-12-20T04:00:52;5.90;99.90
31765;DHT22;18338;53.240;8.798;2023-12-20T04:03:19;5.90;99.90
31765;DHT22;18338;53.240;8.798;2023-12-20T04:05:49;5.90;99.90
31765;DHT22;18338;53.240;8.798;2023-12-20T04:08:17;5.90;99.90
31765;DHT22;18338;53.240;8.798;2023-12-20T04:10:44;5.90;99.90
31765;DHT22;18338;53.240;8.798;2023-12-20T04:13:10;5.90;99.90
31765;DHT22;18338;53.240;8.798;2023-12-20T04:15:37;5.90;99.90
31765;DHT22;18338;53.240;8.798;2023-12-20T04:18:05;5.90;99.90
31765;DHT22;18338;53.240;8.798;2023-12-20T04:20:32;5.90;99.90
31765;DHT22;18338;53.240;8.798;2023-12-20T04:22:58;5.90;99.90
31765;DHT22;18338;53.240;8.798;2023-12-20T04:25:25;5.90;99.90
31765;DHT22;18338;53.240;8.798;2023-12-20T04:27:52;6.00;99.90
31765;DHT22;18338;53.240;8.798;2023-12-20T04:30:19;5.90;99.90
31765;DHT22;18338;53.240;8.798;2023-12-20T04:32:46;6.00;99.90
31765;DHT22;18338;53.240;8.798;2023-12-20T04:35:13;5.90;99.90
31765;DHT22;18338;53.240;8.798;2023-12-20T04:37:40;5.90;99.90
31765;DHT22;18338;53.240;8.798;2023-12-20T04:40:07;5.80;99.90
31765;DHT22;18338;53.240;8.798;2023-12-20T04:42:34;5.90;99.90
31765;DHT22;18338;53.240;8.798;2023-12-20T04:45:01;5.90;99.90
31765;DHT22;18338;53.240;8.798;2023-12-20T04:47:28;5.90;99.90
31765;DHT22;18338;53.240;8.798;2023-12-20T04:49:55;5.90;99.90
31765;DHT22;18338;53.240;8.798;2023-12-20T04:52:23;5.90;99.90
31765;DHT22;18338;53.240;8.798;2023-12-20T04:54:50;6.00;99.90
31765;DHT22;18338;53.240;8.798;2023-12-20T04:57:17;6.00;99.90
31765;DHT22;18338;53.240;8.798;2023-12-20T04:59:43;6.00;99.90
31765;DHT22;18338;53.240;8.798;2023-12-20T05:02:10;6.00;99.90
31765;DHT22;18338;53.240;8.798;2023-12-20T05:04:37;5.90;99.90
31765;DHT22;18338;53.240;8.798;2023-12-20T05:07:04;5.90;99.90
31765;DHT22;18338;53.240;8.798;2023-12-20T05:09:32;5.90;99.90
31765;DHT22;18338;53.240;8.798;2023-12-20T05:11:58;5.90;99.90
31765;DHT22;18338;53.240;8.798;2023-12-20T05:14:25;5.90;99.90
31765;DHT22;18338;53.240;8.798;2023-12-20T05:16:52;6.00;99.90
31765;DHT22;18338;53.240;8.798;2023-12-20T05:19:19;6.00;99.90
31765;DHT22;18338;53.240;8.798;2023-12-20T05:21:45;6.00;99.90
31765;DHT22;18338;53.240;8.798;2023-12-20T05:24:12;6.00;99.90
31765;DHT22;18338;53.240;8.798;2023-12-20T05:26:39;6.10;99.90
31765;DHT22;18338;53.240;8.798;2023-12-20T05:29:14;6.10;99.90
31765;DHT22;18338;53.240;8.798;2023-12-20T05:32:24;6.10;99.90
31765;DHT22;18338;53.240;8.798;2023-12-20T05:34:52;6.00;99.90
31765;DHT22;18338;53.240;8.798;2023-12-20T05:37:19;6.10;99.90
31765;DHT22;18338;53.240;8.798;2023-12-20T05:39:46;6.10;99.90
31765;DHT22;18338;53.240;8.798;2023-12-20T05:42:14;6.10;99.90
31765;DHT22;18338;53.240;8.798;2023-12-20T05:44:40;6.10;99.90
31765;DHT22;18338;53.240;8.798;2023-12-20T05:47:07;6.10;99.90
31765;DHT22;18338;53.240;8.798;2023-12-20T05:49:34;6.10;99.90
31765;DHT22;18338;53.240;8.798;2023-12-20T05:52:01;6.20;99.90
31765;DHT22;18338;53.240;8.798;2023-12-20T05:54:28;6.20;99.90
31765;DHT22;18338;53.240;8.798;2023-12-20T05:56:54;6.20;99.90
31765;DHT22;18338;53.240;8.798;2023-12-20T05:59:21;6.10;99.90
31765;DHT22;18338;53.240;8.798;2023-12-20T06:01:48;6.10;99.90
31765;DHT22;18338;53.240;8.798;2023-12-20T06:04:25;6.10;99.90
31765;DHT22;18338;53.240;8.798;2023-12-20T06:06:59;6.10;99.90
31765;DHT22;18338;53.240;8.798;2023-12-20T06:09:29;6.20;99.90
31765;DHT22;18338;53.240;8.798;2023-12-20T06:11:57;6.20;99.90
31765;DHT22;18338;53.240;8.798;2023-12-20T06:14:24;6.20;99.90
31765;DHT22;18338;53.240;8.798;2023-12-20T06:16:51;6.20;99.90
31765;DHT22;18338;53.240;8.798;2023-12-20T06:19:18;6.20;99.90
31765;DHT22;18338;53.240;8.798;2023-12-20T06:21:45;6.20;99.90
31765;DHT22;18338;53.240;8.798;2023-12-20T06:24:11;6.20;99.90
31765;DHT22;18338;53.240;8.798;2023-12-20T06:26:38;6.20;99.90
31765;DHT22;18338;53.240;8.798;2023-12-20T06:29:05;6.10;99.90
31765;DHT22;18338;53.240;8.798;2023-12-20T06:31:32;6.10;99.90
31765;DHT22;18338;53.240;8.798;2023-12-20T06:34:00;6.20;99.90
31765;DHT22;18338;53.240;8.798;2023-12-20T06:36:27;6.20;99.90
31765;DHT22;18338;53.240;8.798;2023-12-20T06:38:53;6.30;99.90
31765;DHT22;18338;53.240;8.798;2023-12-20T06:41:20;6.30;99.90
31765;DHT22;18338;53.240;8.798;2023-12-20T06:43:47;6.30;99.90
31765;DHT22;18338;53.240;8.798;2023-12-20T06:46:16;6.30;99.90
31765;DHT22;18338;53.240;8.798;2023-12-20T06:48:44;6.30;99.90
31765;DHT22;18338;53.240;8.798;2023-12-20T06:51:14;6.30;99.90
31765;DHT22;18338;53.240;8.798;2023-12-20T06:53:41;6.30;99.90
31765;DHT22;18338;53.240;8.798;2023-12-20T06:56:07;6.30;99.90
31765;DHT22;18338;53.240;8.798;2023-12-20T06:58:35;6.30;99.90
31765;DHT22;18338;53.240;8.798;2023-12-20T07:01:03;6.30;99.90
31765;DHT22;18338;53.240;8.798;2023-12-20T07:03:31;6.40;99.90
31765;DHT22;18338;53.240;8.798;2023-12-20T07:05:58;6.40;99.90
31765;DHT22;18338;53.240;8.798;2023-12-20T07:08:24;6.40;99.90
31765;DHT22;18338;53.240;8.798;2023-12-20T07:10:51;6.40;99.90
31765;DHT22;18338;53.240;8.798;2023-12-20T07:13:18;6.40;99.90
31765;DHT22;18338;53.240;8.798;2023-12-20T07:15:45;6.40;99.90
31765;DHT22;18338;53.240;8.798;2023-12-20T07:18:11;6.40;99.90
31765;DHT22;18338;53.240;8.798;2023-12-20T07:20:38;6.40;99.90
31765;DHT22;18338;53.240;8.798;2023-12-20T07:23:05;6.50;99.90
31765;DHT22;18338;53.240;8.798;2023-12-20T07:25:32;6.50;99.90
31765;DHT22;18338;53.240;8.798;2023-12-20T07:27:59;6.40;99.90
31765;DHT22;18338;53.240;8.798;2023-12-20T07:30:26;6.40;99.90
31765;DHT22;18338;53.240;8.798;2023-12-20T07:32:53;6.40;99.90
31765;DHT22;18338;53.240;8.798;2023-12-20T07:35:20;6.40;99.90
31765;DHT22;18338;53.240;8.798;2023-12-20T07:37:47;6.50;99.90
31765;DHT22;18338;53.240;8.798;2023-12-20T07:40:14;6.50;99.90
31765;DHT22;18338;53.240;8.798;2023-12-20T07:42:43;6.50;99.90
31765;DHT22;18338;53.240;8.798;2023-12-20T07:45:10;6.50;99.90
31765;DHT22;18338;53.240;8.798;2023-12-20T07:47:38;6.50;99.90
31765;DHT22;18338;53.240;8.798;2023-12-20T07:50:05;6.50;99.90
31765;DHT22;18338;53.240;8.798;2023-12-20T07:52:32;6.50;99.90
31765;DHT22;18338;53.240;8.798;2023-12-20T07:54:59;6.50;99.90
31765;DHT22;18338;53.240;8.798;2023-12-20T07:57:28;6.60;99.90
31765;DHT22;18338;53.240;8.798;2023-12-20T07:59:55;6.60;99.90
31765;DHT22;18338;53.240;8.798;2023-12-20T08:02:23;6.60;99.90
31765;DHT22;18338;53.240;8.798;2023-12-20T08:04:50;6.60;99.90
31765;DHT22;18338;53.240;8.798;2023-12-20T08:07:17;6.60;99.90
31765;DHT22;18338;53.240;8.798;2023-12-20T08:09:44;6.60;99.90
31765;DHT22;18338;53.240;8.798;2023-12-20T08:12:11;6.60;99.90
31765;DHT22;18338;53.240;8.798;2023-12-20T08:14:38;6.70;99.90
31765;DHT22;18338;53.240;8.798;2023-12-20T08:17:04;6.70;99.90
31765;DHT22;18338;53.240;8.798;2023-12-20T08:19:31;6.80;99.90
31765;DHT22;18338;53.240;8.798;2023-12-20T08:21:58;6.80;99.90
31765;DHT22;18338;53.240;8.798;2023-12-20T08:24:25;6.80;99.90
31765;DHT22;18338;53.240;8.798;2023-12-20T08:26:52;6.80;99.90
31765;DHT22;18338;53.240;8.798;2023-12-20T08:29:19;6.80;99.90
31765;DHT22;18338;53.240;8.798;2023-12-20T08:31:45;6.80;99.90
31765;DHT22;18338;53.240;8.798;2023-12-20T08:34:13;6.80;99.90
31765;DHT22;18338;53.240;8.798;2023-12-20T08:36:42;6.80;99.90
31765;DHT22;18338;53.240;8.798;2023-12-20T08:39:08;6.80;99.90
31765;DHT22;18338;53.240;8.798;2023-12-20T08:41:35;6.90;99.90
31765;DHT22;18338;53.240;8.798;2023-12-20T08:44:03;6.90;99.90
31765;DHT22;18338;53.240;8.798;2023-12-20T08:46:30;6.80;99.90
31765;DHT22;18338;53.240;8.798;2023-12-20T08:48:57;6.80;99.90
31765;DHT22;18338;53.240;8.798;2023-12-20T08:51:24;6.80;99.90
31765;DHT22;18338;53.240;8.798;2023-12-20T08:53:52;6.80;99.90
31765;DHT22;18338;53.240;8.798;2023-12-20T08:56:19;6.80;99.90
31765;DHT22;18338;53.240;8.798;2023-12-20T08:58:46;6.80;99.90
31765;DHT22;18338;53.240;8.798;2023-12-20T09:01:14;6.80;99.90
31765;DHT22;18338;53.240;8.798;2023-12-20T09:03:41;6.80;99.90
31765;DHT22;18338;53.240;8.798;2023-12-20T09:06:08;6.90;99.90
31765;DHT22;18338;53.240;8.798;2023-12-20T09:08:36;7.00;99.90
31765;DHT22;18338;53.240;8.798;2023-12-20T09:11:03;7.10;99.90
31765;DHT22;18338;53.240;8.798;2023-12-20T09:13:30;7.00;99.90
31765;DHT22;18338;53.240;8.798;2023-12-20T09:15:58;7.00;99.90
31765;DHT22;18338;53.240;8.798;2023-12-20T09:18:25;7.00;99.90
31765;DHT22;18338;53.240;8.798;2023-12-20T09:20:52;7.00;99.90
31765;DHT22;18338;53.240;8.798;2023-12-20T09:23:19;7.00;99.90
31765;DHT22;18338;53.240;8.798;2023-12-20T09:25:46;6.60;99.90
31765;DHT22;18338;53.240;8.798;2023-12-20T09:28:13;6.20;99.90
31765;DHT22;18338;53.240;8.798;2023-12-20T09:30:40;6.20;99.90
31765;DHT22;18338;53.240;8.798;2023-12-20T09:33:07;6.00;99.90
31765;DHT22;18338;53.240;8.798;2023-12-20T09:35:35;6.00;99.90
31765;DHT22;18338;53.240;8.798;2023-12-20T09:38:02;5.90;99.90
31765;DHT22;18338;53.240;8.798;2023-12-20T09:40:29;5.80;99.90
31765;DHT22;18338;53.240;8.798;2023-12-20T09:43:03;5.70;99.90
31765;DHT22;18338;53.240;8.798;2023-12-20T09:45:31;5.70;99.90
31765;DHT22;18338;53.240;8.798;2023-12-20T09:47:58;5.80;99.90
31765;DHT22;18338;53.240;8.798;2023-12-20T09:50:25;5.90;99.90
31765;DHT22;18338;53.240;8.798;2023-12-20T09:52:53;5.90;99.90
31765;DHT22;18338;53.240;8.798;2023-12-20T09:55:25;5.90;99.90
31765;DHT22;18338;53.240;8.798;2023-12-20T09:57:52;5.90;99.90
31765;DHT22;18338;53.240;8.798;2023-12-20T10:00:19;5.90;99.90
31765;DHT22;18338;53.240;8.798;2023-12-20T10:02:56;6.00;99.90
31765;DHT22;18338;53.240;8.798;2023-12-20T10:07:53;6.00;99.90
31765;DHT22;18338;53.240;8.798;2023-12-20T10:10:21;6.10;99.90
31765;DHT22;18338;53.240;8.798;2023-12-20T10:13:07;6.00;99.90
31765;DHT22;18338;53.240;8.798;2023-12-20T10:15:35;6.00;99.90
31765;DHT22;18338;53.240;8.798;2023-12-20T10:18:03;5.90;99.90
31765;DHT22;18338;53.240;8.798;2023-12-20T10:20:31;5.90;99.90
31765;DHT22;18338;53.240;8.798;2023-12-20T10:22:58;5.90;99.90
31765;DHT22;18338;53.240;8.798;2023-12-20T10:25:26;6.00;99.90
31765;DHT22;18338;53.240;8.798;2023-12-20T10:28:10;6.00;99.90
31765;DHT22;18338;53.240;8.798;2023-12-20T10:30:38;6.10;99.90
31765;DHT22;18338;53.240;8.798;2023-12-20T10:33:09;6.20;99.90
31765;DHT22;18338;53.240;8.798;2023-12-20T10:35:38;6.40;99.90
31765;DHT22;18338;53.240;8.798;2023-12-20T10:38:08;6.40;99.90
31765;DHT22;18338;53.240;8.798;2023-12-20T10:40:36;6.50;99.90
31765;DHT22;18338;53.240;8.798;2023-12-20T10:43:04;6.60;99.90
31765;DHT22;18338;53.240;8.798;2023-12-20T10:45:32;6.70;99.90
31765;DHT22;18338;53.240;8.798;2023-12-20T10:47:59;6.60;99.90
31765;DHT22;18338;53.240;8.798;2023-12-20T10:50:27;6.70;99.90
31765;DHT22;18338;53.240;8.798;2023-12-20T10:52:55;6.70;99.90
31765;DHT22;18338;53.240;8.798;2023-12-20T10:55:23;6.80;99.90
31765;DHT22;18338;53.240;8.798;2023-12-20T10:58:07;6.90;99.90
31765;DHT22;18338;53.240;8.798;2023-12-20T11:00:41;7.20;99.90
31765;DHT22;18338;53.240;8.798;2023-12-20T11:03:11;7.30;99.90
31765;DHT22;18338;53.240;8.798;2023-12-20T11:05:53;7.30;99.90
31765;DHT22;18338;53.240;8.798;2023-12-20T11:08:44;7.00;99.90
31765;DHT22;18338;53.240;8.798;2023-12-20T11:11:29;6.90;99.90
31765;DHT22;18338;53.240;8.798;2023-12-20T11:14:04;6.80;99.90
31765;DHT22;18338;53.240;8.798;2023-12-20T11:16:32;6.70;99.90
31765;DHT22;18338;53.240;8.798;2023-12-20T11:19:14;6.70;99.90
31765;DHT22;18338;53.240;8.798;2023-12-20T11:21:41;6.70;99.90
31765;DHT22;18338;53.240;8.798;2023-12-20T11:24:09;6.80;99.90
31765;DHT22;18338;53.240;8.798;2023-12-20T11:26:36;6.80;99.90
31765;DHT22;18338;53.240;8.798;2023-12-20T11:29:35;6.80;99.90
31765;DHT22;18338;53.240;8.798;2023-12-20T11:32:03;6.90;99.90
31765;DHT22;18338;53.240;8.798;2023-12-20T11:34:32;6.90;99.90
31765;DHT22;18338;53.240;8.798;2023-12-20T11:37:02;6.90;99.90
31765;DHT22;18338;53.240;8.798;2023-12-20T11:39:30;7.00;99.90
31765;DHT22;18338;53.240;8.798;2023-12-20T11:42:04;7.10;99.90
31765;DHT22;18338;53.240;8.798;2023-12-20T11:44:31;7.10;99.90
31765;DHT22;18338;53.240;8.798;2023-12-20T11:46:59;7.20;99.90
31765;DHT22;18338;53.240;8.798;2023-12-20T11:49:25;7.50;99.90
31765;DHT22;18338;53.240;8.798;2023-12-20T11:51:52;7.70;99.90
31765;DHT22;18338;53.240;8.798;2023-12-20T11:54:19;7.90;99.90
31765;DHT22;18338;53.240;8.798;2023-12-20T11:56:47;8.00;99.90
31765;DHT22;18338;53.240;8.798;2023-12-20T11:59:14;8.20;99.90
31765;DHT22;18338;53.240;8.798;2023-12-20T12:01:50;8.20;99.90
31765;DHT22;18338;53.240;8.798;2023-12-20T12:04:17;8.20;99.90
31765;DHT22;18338;53.240;8.798;2023-12-20T12:06:45;8.20;99.90
31765;DHT22;18338;53.240;8.798;2023-12-20T12:09:12;8.10;99.90
31765;DHT22;18338;53.240;8.798;2023-12-20T12:11:39;7.80;99.90
31765;DHT22;18338;53.240;8.798;2023-12-20T12:14:07;7.60;99.90
31765;DHT22;18338;53.240;8.798;2023-12-20T12:16:34;7.50;99.90
31765;DHT22;18338;53.240;8.798;2023-12-20T12:19:01;7.40;99.90
31765;DHT22;18338;53.240;8.798;2023-12-20T12:21:28;7.20;99.90
31765;DHT22;18338;53.240;8.798;2023-12-20T12:24:09;7.00;99.90
31765;DHT22;18338;53.240;8.798;2023-12-20T12:26:36;6.90;99.90
31765;DHT22;18338;53.240;8.798;2023-12-20T12:29:07;6.90;99.90
31765;DHT22;18338;53.240;8.798;2023-12-20T12:31:34;7.00;99.90
31765;DHT22;18338;53.240;8.798;2023-12-20T12:37:39;7.30;99.90
31765;DHT22;18338;53.240;8.798;2023-12-20T12:40:19;7.30;99.90
31765;DHT22;18338;53.240;8.798;2023-12-20T12:42:49;7.20;99.90
31765;DHT22;18338;53.240;8.798;2023-12-20T12:45:16;7.80;99.90
31765;DHT22;18338;53.240;8.798;2023-12-20T12:47:43;8.60;99.90
31765;DHT22;18338;53.240;8.798;2023-12-20T12:50:10;9.00;99.90
31765;DHT22;18338;53.240;8.798;2023-12-20T12:52:37;9.10;99.90
31765;DHT22;18338;53.240;8.798;2023-12-20T12:55:04;9.00;99.90
31765;DHT22;18338;53.240;8.798;2023-12-20T12:57:32;8.90;99.90
31765;DHT22;18338;53.240;8.798;2023-12-20T13:00:00;8.70;99.90
31765;DHT22;18338;53.240;8.798;2023-12-20T13:02:26;8.30;99.90
31765;DHT22;18338;53.240;8.798;2023-12-20T13:04:53;7.90;99.90
31765;DHT22;18338;53.240;8.798;2023-12-20T13:07:20;7.80;99.90
31765;DHT22;18338;53.240;8.798;2023-12-20T13:09:47;7.60;99.90
31765;DHT22;18338;53.240;8.798;2023-12-20T13:12:14;7.60;99.90
31765;DHT22;18338;53.240;8.798;2023-12-20T13:14:41;7.40;99.90
31765;DHT22;18338;53.240;8.798;2023-12-20T13:17:08;7.30;99.90
31765;DHT22;18338;53.240;8.798;2023-12-20T13:19:59;7.30;99.90
31765;DHT22;18338;53.240;8.798;2023-12-20T13:22:53;7.20;99.90
31765;DHT22;18338;53.240;8.798;2023-12-20T13:25:39;7.30;99.90
31765;DHT22;18338;53.240;8.798;2023-12-20T13:28:25;7.40;99.90
31765;DHT22;18338;53.240;8.798;2023-12-20T13:30:52;7.60;99.90
31765;DHT22;18338;53.240;8.798;2023-12-20T13:33:19;7.50;99.90
31765;DHT22;18338;53.240;8.798;2023-12-20T13:35:45;7.50;99.90
31765;DHT22;18338;53.240;8.798;2023-12-20T13:38:13;7.50;99.90
31765;DHT22;18338;53.240;8.798;2023-12-20T13:40:40;7.50;99.90
31765;DHT22;18338;53.240;8.798;2023-12-20T13:43:06;7.40;99.90
31765;DHT22;18338;53.240;8.798;2023-12-20T13:45:33;7.30;99.90
31765;DHT22;18338;53.240;8.798;2023-12-20T13:48:00;7.30;99.90
31765;DHT22;18338;53.240;8.798;2023-12-20T13:50:27;7.30;99.90
31765;DHT22;18338;53.240;8.798;2023-12-20T13:52:54;7.30;99.90
31765;DHT22;18338;53.240;8.798;2023-12-20T13:55:20;7.20;99.90
31765;DHT22;18338;53.240;8.798;2023-12-20T13:57:51;7.10;99.90
31765;DHT22;18338;53.240;8.798;2023-12-20T14:00:22;7.00;99.90
31765;DHT22;18338;53.240;8.798;2023-12-20T14:02:49;6.90;99.90
31765;DHT22;18338;53.240;8.798;2023-12-20T14:05:16;7.00;99.90
31765;DHT22;18338;53.240;8.798;2023-12-20T14:07:45;7.00;99.90
31765;DHT22;18338;53.240;8.798;2023-12-20T14:10:13;7.00;99.90
31765;DHT22;18338;53.240;8.798;2023-12-20T14:12:40;7.00;99.90
31765;DHT22;18338;53.240;8.798;2023-12-20T14:15:07;6.90;99.90
31765;DHT22;18338;53.240;8.798;2023-12-20T14:17:41;6.90;99.90
31765;DHT22;18338;53.240;8.798;2023-12-20T14:20:09;6.90;99.90
31765;DHT22;18338;53.240;8.798;2023-12-20T14:22:36;6.90;99.90
31765;DHT22;18338;53.240;8.798;2023-12-20T14:25:05;6.90;99.90
31765;DHT22;18338;53.240;8.798;2023-12-20T14:27:33;6.80;99.90
31765;DHT22;18338;53.240;8.798;2023-12-20T14:30:00;6.80;99.90
31765;DHT22;18338;53.240;8.798;2023-12-20T14:32:27;6.90;99.90
31765;DHT22;18338;53.240;8.798;2023-12-20T14:34:54;6.80;99.90
31765;DHT22;18338;53.240;8.798;2023-12-20T14:37:22;6.80;99.90
31765;DHT22;18338;53.240;8.798;2023-12-20T14:39:49;6.80;99.90
31765;DHT22;18338;53.240;8.798;2023-12-20T14:42:15;6.80;99.90
31765;DHT22;18338;53.240;8.798;2023-12-20T14:44:43;6.80;99.90
31765;DHT22;18338;53.240;8.798;2023-12-20T14:47:10;6.80;99.90
31765;DHT22;18338;53.240;8.798;2023-12-20T14:49:37;6.80;99.90
31765;DHT22;18338;53.240;8.798;2023-12-20T14:52:04;6.80;99.90
31765;DHT22;18338;53.240;8.798;2023-12-20T14:54:31;6.80;99.90
31765;DHT22;18338;53.240;8.798;2023-12-20T14:56:59;6.80;99.90
31765;DHT22;18338;53.240;8.798;2023-12-20T14:59:31;6.80;99.90
31765;DHT22;18338;53.240;8.798;2023-12-20T15:01:58;6.70;99.90
31765;DHT22;18338;53.240;8.798;2023-12-20T15:04:25;6.70;99.90
31765;DHT22;18338;53.240;8.798;2023-12-20T15:06:56;6.70;99.90
31765;DHT22;18338;53.240;8.798;2023-12-20T15:09:23;6.70;99.90
31765;DHT22;18338;53.240;8.798;2023-12-20T15:11:50;6.70;99.90
31765;DHT22;18338;53.240;8.798;2023-12-20T15:14:17;6.70;99.90
31765;DHT22;18338;53.240;8.798;2023-12-20T15:16:47;6.70;99.90
31765;DHT22;18338;53.240;8.798;2023-12-20T15:19:14;6.70;99.90
31765;DHT22;18338;53.240;8.798;2023-12-20T15:21:41;6.70;99.90
31765;DHT22;18338;53.240;8.798;2023-12-20T15:24:13;6.60;99.90
31765;DHT22;18338;53.240;8.798;2023-12-20T15:26:47;6.70;99.90
31765;DHT22;18338;53.240;8.798;2023-12-20T15:29:14;6.70;99.90
31765;DHT22;18338;53.240;8.798;2023-12-20T15:31:43;6.70;99.90
31765;DHT22;18338;53.240;8.798;2023-12-20T15:34:10;6.70;99.90
31765;DHT22;18338;53.240;8.798;2023-12-20T15:36:38;6.70;99.90
31765;DHT22;18338;53.240;8.798;2023-12-20T15:39:06;6.70;99.90
31765;DHT22;18338;53.240;8.798;2023-12-20T15:41:35;6.70;99.90
31765;DHT22;18338;53.240;8.798;2023-12-20T15:44:02;6.70;99.90
31765;DHT22;18338;53.240;8.798;2023-12-20T15:46:29;6.70;99.90
31765;DHT22;18338;53.240;8.798;2023-12-20T15:48:56;6.70;99.90
31765;DHT22;18338;53.240;8.798;2023-12-20T15:51:23;6.70;99.90
31765;DHT22;18338;53.240;8.798;2023-12-20T15:53:50;6.70;99.90
31765;DHT22;18338;53.240;8.798;2023-12-20T15:56:17;6.70;99.90